Accueil
METAR-TAF:

METAR-TAF

Aéroports :

Aéroport international de Sanya Phénix

Sanya, Chine

latitude: 18-18N, longitude: 109-24E, altitude: 27 m

Observation

Le bulletin a été fait il y a 14 minutes, à 22:00 UTC
Vent 4 kt de nord/nord-ouest
Température 14°C
Humidité 77%
Pression 1017 hPa
Visibilité: 8000 m

METAR: ZJSY 182200Z 34002MPS 8000 NSC 14/10 Q1017 NOSIG

Heure: 06:14 (22:14 UTC)

Prévision

Le bulletin a été fait il y a 7 heures et 11 minutes, à 15:03 UTC
Prévision valable du 18 à 18 UTC au 19 à 18 UTC
Vent 6 kt de est
Visibilité 10 km ou plus
Nuages fragmentés à une hauteur de 5000 ft

TAF: ZJSY 181503Z 1818/1918 09003MPS 9999 BKN050 TX24/1906Z TN15/1821Z

Observations et prévisions météorologiques de plus de 4000 aéroports (messages METAR et TAF).

Les stations disponibles sont représentées par des disques jaunes et rouges sur la carte.

Passer la souris dessus pour voir le nom de la station.

Cliquer dessus pour voir les observations et prévisions météorologiques.

Pour changer de carte: cliquez sur les boutons verts avec une croix noire pour zoomer, sur le bouton vert avec un tiret pour effectuer un zoom arrière, ou sur les flèches vertes pour les cartes adjacentes.


METAR-TAF: